Time;durP1;ratioP1;P1;durP2;ratioP2;P2;SDS_P1;SDS_P2;PMS_P1;PMS_P2;Temp;Humidity;BMP_temperature;BMP_pressure;BME280_temperature;BME280_humidity;BME280_pressure;Samples;Min_cycle;Max_cycle;Signal;HPM_P1;HPM_P2
2022/08/14 00:01:46;;;;;;;0.00;0.00;;;;;;;;;;5017638;28;20128;-85
2022/08/14 00:04:12;;;;;;;0.00;0.00;;;;;;;;;;5034552;28;20037;-85
2022/08/14 00:06:38;;;;;;;0.00;0.00;;;;;;;;;;5034386;28;20044;-86
2022/08/14 00:09:04;;;;;;;0.00;0.00;;;;;;;;;;5034944;28;20481;-84
2022/08/14 00:11:30;;;;;;;0.00;0.00;;;;;;;;;;5034760;28;20128;-86
2022/08/14 00:13:56;;;;;;;0.10;0.00;;;;;;;;;;5034426;28;20037;-85
2022/08/14 00:16:22;;;;;;;0.00;0.00;;;;;;;;;;5017743;28;20526;-85
2022/08/14 00:18:48;;;;;;;0.00;0.00;;;;;;;;;;5017770;28;20033;-85
2022/08/14 00:21:14;;;;;;;0.00;0.00;;;;;;;;;;5036420;28;20507;-84
2022/08/14 00:23:41;;;;;;;0.00;0.00;;;;;;;;;;5017360;28;20125;-85
2022/08/14 00:26:08;;;;;;;0.00;0.00;;;;;;;;;;5033854;28;20049;-85
2022/08/14 00:28:35;;;;;;;0.00;0.00;;;;;;;;;;5017402;28;20049;-86
2022/08/14 00:31:01;;;;;;;0.00;0.00;;;;;;;;;;5033740;28;20041;-86
2022/08/14 00:33:27;;;;;;;0.00;0.00;;;;;;;;;;5033592;28;20041;-85
2022/08/14 00:35:54;;;;;;;0.00;0.00;;;;;;;;;;5033679;28;20327;-85
2022/08/14 00:38:20;;;;;;;0.00;0.00;;;;;;;;;;5033678;28;20113;-86
2022/08/14 00:40:47;;;;;;;0.00;0.00;;;;;;;;;;5017161;28;20051;-86
2022/08/14 00:43:14;;;;;;;0.00;0.00;;;;;;;;;;5033609;28;20485;-86
2022/08/14 00:45:40;;;;;;;0.00;0.00;;;;;;;;;;5034082;28;20473;-87
2022/08/14 00:48:06;;;;;;;0.00;0.00;;;;;;;;;;5033495;28;20045;-84
2022/08/14 00:50:33;;;;;;;0.00;0.00;;;;;;;;;;5033405;28;20057;-87
2022/08/14 00:52:59;;;;;;;0.00;0.00;;;;;;;;;;5017034;28;20104;-84
2022/08/14 00:55:29;;;;;;;0.00;0.00;;;;;;;;;;5033256;28;20049;-86
2022/08/14 01:00:42;;;;;;;0.00;0.00;;;;;;;;;;5032905;28;20439;-84
2022/08/14 01:03:08;;;;;;;0.00;0.00;;;;;;;;;;5016447;28;20069;-84
2022/08/14 01:05:34;;;;;;;0.00;0.00;;;;;;;;;;5016721;28;20048;-85
2022/08/14 01:08:01;;;;;;;0.00;0.00;;;;;;;;;;5032948;28;20045;-85
2022/08/14 01:10:49;;;;;;;0.00;0.00;;;;;;;;;;5033198;28;20420;-86
2022/08/14 01:13:15;;;;;;;0.00;0.00;;;;;;;;;;5033096;28;20152;-86
2022/08/14 01:15:46;;;;;;;0.00;0.00;;;;;;;;;;5016581;28;20096;-85
2022/08/14 01:21:11;;;;;;;0.00;0.00;;;;;;;;;;5033064;28;20089;-85
2022/08/14 01:23:42;;;;;;;0.00;0.00;;;;;;;;;;5033520;28;20099;-84
2022/08/14 01:26:08;;;;;;;0.00;0.00;;;;;;;;;;5032796;28;20041;-85
2022/08/14 01:28:36;;;;;;;0.00;0.00;;;;;;;;;;5032897;28;20045;-84
2022/08/14 01:31:05;;;;;;;0.00;0.00;;;;;;;;;;5016035;28;20504;-84
2022/08/14 01:33:31;;;;;;;0.00;0.00;;;;;;;;;;5015884;28;20045;-84
2022/08/14 01:35:59;;;;;;;0.00;0.00;;;;;;;;;;5016162;28;20396;-84
2022/08/14 01:38:27;;;;;;;0.00;0.00;;;;;;;;;;5015788;28;20037;-85
2022/08/14 01:40:53;;;;;;;0.00;0.00;;;;;;;;;;5015909;28;20413;-85
2022/08/14 01:43:19;;;;;;;0.00;0.00;;;;;;;;;;5032948;28;20068;-86
2022/08/14 01:45:50;;;;;;;0.00;0.00;;;;;;;;;;5032754;28;20497;-85
2022/08/14 01:48:16;;;;;;;0.00;0.00;;;;;;;;;;5037221;28;20477;-85
2022/08/14 01:50:42;;;;;;;0.00;0.00;;;;;;;;;;5035515;28;20387;-85
2022/08/14 01:53:09;;;;;;;0.00;0.00;;;;;;;;;;5052161;28;20049;-85
2022/08/14 01:55:37;;;;;;;0.00;0.00;;;;;;;;;;5052406;28;20133;-85
2022/08/14 01:58:03;;;;;;;0.00;0.00;;;;;;;;;;5052020;28;20037;-84
2022/08/14 02:00:29;;;;;;;0.00;0.00;;;;;;;;;;5035677;28;20068;-84
2022/08/14 02:02:57;;;;;;;0.00;0.00;;;;;;;;;;5051847;28;20048;-85
2022/08/14 02:05:28;;;;;;;0.00;0.00;;;;;;;;;;5035829;28;20063;-85
2022/08/14 02:07:55;;;;;;;0.00;0.00;;;;;;;;;;5042151;28;20044;-86
2022/08/14 02:10:21;;;;;;;0.00;0.00;;;;;;;;;;5056641;28;20041;-84
2022/08/14 02:12:47;;;;;;;0.00;0.00;;;;;;;;;;5053565;28;20487;-84
2022/08/14 02:15:13;;;;;;;0.00;0.00;;;;;;;;;;5051593;28;20044;-84
2022/08/14 02:17:40;;;;;;;0.00;0.00;;;;;;;;;;5051673;28;20033;-84
2022/08/14 02:20:09;;;;;;;0.00;0.00;;;;;;;;;;5051299;28;20036;-85
2022/08/14 02:22:37;;;;;;;0.00;0.00;;;;;;;;;;5051613;28;20045;-85
2022/08/14 02:25:03;;;;;;;0.00;0.00;;;;;;;;;;5051398;28;20048;-84
2022/08/14 02:27:29;;;;;;;0.00;0.00;;;;;;;;;;5051404;28;20045;-85
2022/08/14 02:29:55;;;;;;;0.00;0.00;;;;;;;;;;5051464;28;20043;-84
2022/08/14 02:32:22;;;;;;;0.00;0.00;;;;;;;;;;5053221;28;20045;-85
2022/08/14 02:34:48;;;;;;;0.00;0.00;;;;;;;;;;5051237;28;20107;-84
2022/08/14 02:37:14;;;;;;;0.00;0.00;;;;;;;;;;5051065;28;20052;-85
2022/08/14 02:39:42;;;;;;;0.00;0.00;;;;;;;;;;5037758;28;20038;-84
2022/08/14 02:42:11;;;;;;;0.00;0.00;;;;;;;;;;5031198;28;20083;-85
2022/08/14 02:44:38;;;;;;;0.00;0.00;;;;;;;;;;5014516;28;20049;-84
2022/08/14 02:47:04;;;;;;;0.00;0.00;;;;;;;;;;5031103;28;20104;-85
2022/08/14 02:49:30;;;;;;;0.55;0.15;;;;;;;;;;5030820;28;20136;-85
2022/08/14 02:51:57;;;;;;;0.00;0.00;;;;;;;;;;5031165;28;20548;-84
2022/08/14 02:54:23;;;;;;;0.00;0.00;;;;;;;;;;5030917;28;20045;-84
2022/08/14 02:56:53;;;;;;;0.00;0.00;;;;;;;;;;5030896;28;20037;-85
2022/08/14 02:59:19;;;;;;;0.00;0.00;;;;;;;;;;5030792;28;20045;-84
2022/08/14 03:01:46;;;;;;;0.00;0.00;;;;;;;;;;5031008;28;20044;-85
2022/08/14 03:04:13;;;;;;;0.00;0.00;;;;;;;;;;5030916;28;20037;-86
2022/08/14 03:06:42;;;;;;;0.00;0.00;;;;;;;;;;5014693;28;20452;-84
2022/08/14 03:09:08;;;;;;;0.00;0.00;;;;;;;;;;5014078;28;20049;-86
2022/08/14 03:11:34;;;;;;;0.00;0.00;;;;;;;;;;5031019;28;20095;-86
2022/08/14 03:14:00;;;;;;;0.00;0.00;;;;;;;;;;5030831;28;20041;-84
2022/08/14 03:16:34;;;;;;;0.13;0.08;;;;;;;;;;5014204;28;20080;-84
2022/08/14 03:19:01;;;;;;;0.00;0.00;;;;;;;;;;5030727;28;20084;-85
2022/08/14 03:21:29;;;;;;;0.00;0.00;;;;;;;;;;5030818;28;20180;-86
2022/08/14 03:26:31;;;;;;;0.00;0.00;;;;;;;;;;5034968;28;20121;-84
2022/08/14 03:28:57;;;;;;;0.00;0.00;;;;;;;;;;5034635;28;20377;-84
2022/08/14 03:31:23;;;;;;;0.00;0.00;;;;;;;;;;5035238;28;20037;-84
2022/08/14 03:33:50;;;;;;;0.00;0.00;;;;;;;;;;5018400;28;20124;-85
2022/08/14 03:36:16;;;;;;;0.00;0.00;;;;;;;;;;5034657;28;20052;-85
2022/08/14 03:38:44;;;;;;;0.00;0.00;;;;;;;;;;5034414;28;20041;-86
2022/08/14 03:41:18;;;;;;;0.00;0.00;;;;;;;;;;5034674;28;20064;-86
2022/08/14 03:43:44;;;;;;;0.00;0.00;;;;;;;;;;5018207;28;20038;-86
2022/08/14 03:46:12;;;;;;;0.00;0.00;;;;;;;;;;5034891;28;20115;-87
2022/08/14 03:48:38;;;;;;;0.00;0.00;;;;;;;;;;5034726;28;20048;-86
2022/08/14 03:51:07;;;;;;;0.00;0.00;;;;;;;;;;5034138;28;20068;-84
2022/08/14 03:53:36;;;;;;;0.00;0.00;;;;;;;;;;5018110;28;20041;-84
2022/08/14 03:56:03;;;;;;;0.00;0.00;;;;;;;;;;5034076;28;20192;-86
2022/08/14 03:58:28;;;;;;;0.22;0.00;;;;;;;;;;5034304;28;20443;-85
2022/08/14 04:00:55;;;;;;;0.00;0.00;;;;;;;;;;5034183;28;20041;-84
2022/08/14 04:03:23;;;;;;;0.00;0.00;;;;;;;;;;5034246;28;20040;-85
2022/08/14 04:05:49;;;;;;;0.00;0.00;;;;;;;;;;5017562;28;20041;-86
2022/08/14 04:08:16;;;;;;;0.00;0.00;;;;;;;;;;5034180;28;20045;-86
2022/08/14 04:10:45;;;;;;;0.00;0.00;;;;;;;;;;5033889;28;20455;-85
2022/08/14 04:13:11;;;;;;;0.00;0.00;;;;;;;;;;5017736;28;20085;-86
2022/08/14 04:15:37;;;;;;;0.00;0.00;;;;;;;;;;5033918;28;20052;-86
2022/08/14 04:18:07;;;;;;;0.10;0.10;;;;;;;;;;5034250;28;20385;-86
2022/08/14 04:20:34;;;;;;;0.00;0.00;;;;;;;;;;5033773;28;20044;-85
2022/08/14 04:23:00;;;;;;;0.00;0.00;;;;;;;;;;5017798;28;20116;-85
2022/08/14 04:25:26;;;;;;;0.00;0.00;;;;;;;;;;5033853;28;20049;-85
2022/08/14 04:27:53;;;;;;;0.00;0.00;;;;;;;;;;5033946;28;20052;-85
2022/08/14 04:30:19;;;;;;;0.00;0.00;;;;;;;;;;5033556;28;20412;-84
2022/08/14 04:32:45;;;;;;;0.00;0.00;;;;;;;;;;5033741;28;20044;-84
2022/08/14 04:35:11;;;;;;;0.00;0.00;;;;;;;;;;5032938;28;20120;-84
2022/08/14 04:45:52;;;;;;;0.00;0.00;;;;;;;;;;5033504;28;20045;-84
2022/08/14 04:48:19;;;;;;;0.00;0.00;;;;;;;;;;5033751;28;20098;-85
2022/08/14 04:50:45;;;;;;;0.00;0.00;;;;;;;;;;5036226;28;20077;-85
2022/08/14 04:53:19;;;;;;;0.00;0.00;;;;;;;;;;5017066;28;20072;-85
2022/08/14 04:55:49;;;;;;;0.00;0.00;;;;;;;;;;5033330;28;20485;-85
2022/08/14 04:58:16;;;;;;;0.00;0.00;;;;;;;;;;5033572;28;20041;-84
2022/08/14 05:00:42;;;;;;;0.00;0.00;;;;;;;;;;5016579;28;20123;-85
2022/08/14 05:03:09;;;;;;;0.30;0.13;;;;;;;;;;5033677;28;20064;-84
2022/08/14 05:05:35;;;;;;;0.00;0.00;;;;;;;;;;5033097;28;20094;-83
2022/08/14 05:08:11;;;;;;;0.00;0.00;;;;;;;;;;5033428;28;20045;-84
2022/08/14 05:10:39;;;;;;;0.00;0.00;;;;;;;;;;5033436;28;20499;-85
2022/08/14 05:13:06;;;;;;;0.00;0.00;;;;;;;;;;5033568;28;20079;-84
2022/08/14 05:15:34;;;;;;;0.00;0.00;;;;;;;;;;5032890;28;20033;-84
2022/08/14 05:18:01;;;;;;;0.00;0.00;;;;;;;;;;5016582;28;20103;-85
2022/08/14 05:20:27;;;;;;;0.00;0.00;;;;;;;;;;5032910;28;20393;-85
2022/08/14 05:22:54;;;;;;;0.00;0.00;;;;;;;;;;5016326;28;20042;-84
2022/08/14 05:25:20;;;;;;;0.00;0.00;;;;;;;;;;5016134;28;20041;-84
2022/08/14 05:27:46;;;;;;;0.00;0.00;;;;;;;;;;5016266;28;20044;-85
2022/08/14 05:30:14;;;;;;;0.00;0.00;;;;;;;;;;5032548;28;20065;-85
2022/08/14 05:32:42;;;;;;;0.00;0.00;;;;;;;;;;5032852;28;20370;-85
2022/08/14 05:35:10;;;;;;;0.00;0.00;;;;;;;;;;5016030;28;20095;-85
2022/08/14 05:37:38;;;;;;;0.00;0.00;;;;;;;;;;5016015;28;20432;-85
2022/08/14 05:40:04;;;;;;;0.00;0.00;;;;;;;;;;5032346;28;20037;-85
2022/08/14 05:42:30;;;;;;;0.00;0.00;;;;;;;;;;5016041;28;20037;-86
2022/08/14 05:44:56;;;;;;;0.00;0.00;;;;;;;;;;5016075;28;20038;-85
2022/08/14 05:47:23;;;;;;;0.00;0.00;;;;;;;;;;5031403;28;20130;-84
2022/08/14 05:49:49;;;;;;;0.00;0.00;;;;;;;;;;5032095;28;20140;-85
2022/08/14 05:52:15;;;;;;;0.00;0.00;;;;;;;;;;5032001;28;20057;-85
2022/08/14 05:54:41;;;;;;;0.00;0.00;;;;;;;;;;5032332;28;20037;-84
2022/08/14 05:57:07;;;;;;;0.00;0.00;;;;;;;;;;5031773;28;20131;-85
2022/08/14 05:59:33;;;;;;;0.00;0.00;;;;;;;;;;5032222;28;20125;-84
2022/08/14 06:01:59;;;;;;;0.00;0.00;;;;;;;;;;5031826;28;20102;-83
2022/08/14 06:04:25;;;;;;;0.00;0.00;;;;;;;;;;5032003;28;20043;-84
2022/08/14 06:06:51;;;;;;;0.00;0.00;;;;;;;;;;5015078;28;20103;-84
2022/08/14 06:09:17;;;;;;;0.00;0.00;;;;;;;;;;5031970;28;20041;-85
2022/08/14 06:11:43;;;;;;;0.00;0.00;;;;;;;;;;5031901;28;20143;-87
2022/08/14 06:14:10;;;;;;;0.00;0.00;;;;;;;;;;5032409;28;20080;-86
2022/08/14 06:16:35;;;;;;;0.00;0.00;;;;;;;;;;5031661;28;20125;-83
2022/08/14 06:19:01;;;;;;;0.00;0.00;;;;;;;;;;5016562;28;20466;-90
2022/08/14 06:21:27;;;;;;;0.00;0.00;;;;;;;;;;5016766;28;20042;-89
2022/08/14 06:23:53;;;;;;;0.00;0.00;;;;;;;;;;5016853;28;20473;-88
2022/08/14 06:26:19;;;;;;;0.00;0.00;;;;;;;;;;5032897;28;20076;-91
2022/08/14 06:28:45;;;;;;;0.00;0.00;;;;;;;;;;5033033;28;20087;-91
2022/08/14 06:31:11;;;;;;;0.00;0.00;;;;;;;;;;5032633;28;20516;-91
2022/08/14 06:33:37;;;;;;;0.00;0.00;;;;;;;;;;5033017;28;20041;-91
2022/08/14 06:36:03;;;;;;;0.00;0.00;;;;;;;;;;5033131;28;20048;-91
2022/08/14 06:38:29;;;;;;;0.00;0.00;;;;;;;;;;5032862;28;20536;-90
2022/08/14 06:40:55;;;;;;;0.00;0.00;;;;;;;;;;5032738;28;20126;-90
2022/08/14 06:43:22;;;;;;;0.00;0.00;;;;;;;;;;5033070;28;20396;-90
2022/08/14 06:45:49;;;;;;;0.00;0.00;;;;;;;;;;5032784;28;20051;-89
2022/08/14 06:48:27;;;;;;;0.00;0.00;;;;;;;;;;5016263;28;20468;-88
2022/08/14 06:50:55;;;;;;;0.00;0.00;;;;;;;;;;5032854;28;20476;-91
2022/08/14 06:53:22;;;;;;;0.00;0.00;;;;;;;;;;5016695;28;20052;-91
2022/08/14 06:55:48;;;;;;;0.00;0.00;;;;;;;;;;5018727;28;20042;-86
2022/08/14 06:58:16;;;;;;;0.00;0.00;;;;;;;;;;5031496;28;20044;-87
2022/08/14 07:06:18;;;;;;;0.00;0.00;;;;;;;;;;5032719;28;20052;-91
2022/08/14 07:08:44;;;;;;;0.00;0.00;;;;;;;;;;5032023;28;20060;-92
2022/08/14 07:11:11;;;;;;;0.00;0.00;;;;;;;;;;5032534;28;20054;-90
2022/08/14 07:13:37;;;;;;;0.00;0.00;;;;;;;;;;5032455;28;20041;-90
2022/08/14 07:16:04;;;;;;;0.00;0.00;;;;;;;;;;5015681;28;20547;-89
2022/08/14 07:18:30;;;;;;;0.00;0.00;;;;;;;;;;5015695;28;20401;-88
2022/08/14 07:20:58;;;;;;;0.00;0.00;;;;;;;;;;5031725;28;20048;-89
2022/08/14 07:23:24;;;;;;;0.00;0.00;;;;;;;;;;5033071;28;20060;-89
2022/08/14 07:25:51;;;;;;;0.00;0.00;;;;;;;;;;5031860;28;20076;-89
2022/08/14 07:28:20;;;;;;;0.00;0.00;;;;;;;;;;5031390;28;20124;-91
2022/08/14 07:30:46;;;;;;;0.00;0.00;;;;;;;;;;5031751;28;20042;-88
2022/08/14 07:33:12;;;;;;;0.00;0.00;;;;;;;;;;5031317;28;20053;-89
2022/08/14 07:35:39;;;;;;;0.00;0.00;;;;;;;;;;5031729;28;20049;-91
2022/08/14 07:38:06;;;;;;;0.00;0.00;;;;;;;;;;5032056;28;20428;-91
2022/08/14 07:40:33;;;;;;;0.00;0.00;;;;;;;;;;5031905;28;20445;-90
2022/08/14 07:42:59;;;;;;;0.00;0.00;;;;;;;;;;5031609;28;20088;-89
2022/08/14 07:45:26;;;;;;;0.00;0.00;;;;;;;;;;5031082;28;20033;-90
2022/08/14 07:47:55;;;;;;;0.00;0.00;;;;;;;;;;5030519;28;20048;-91
2022/08/14 07:50:21;;;;;;;0.00;0.00;;;;;;;;;;5013878;28;20053;-87
2022/08/14 07:52:48;;;;;;;0.00;0.00;;;;;;;;;;5030273;28;20413;-83
2022/08/14 07:55:16;;;;;;;0.00;0.00;;;;;;;;;;5030751;28;20037;-87
2022/08/14 07:57:43;;;;;;;0.20;0.03;;;;;;;;;;5030307;28;20049;-87
2022/08/14 08:00:11;;;;;;;0.00;0.00;;;;;;;;;;5014056;28;20045;-87
2022/08/14 08:02:38;;;;;;;0.00;0.00;;;;;;;;;;5030229;28;20377;-88
2022/08/14 08:05:05;;;;;;;0.00;0.00;;;;;;;;;;5030522;28;20396;-88
2022/08/14 08:07:31;;;;;;;0.00;0.00;;;;;;;;;;5030210;28;20064;-88
2022/08/14 08:09:58;;;;;;;0.00;0.00;;;;;;;;;;5032142;28;20131;-88
2022/08/14 08:12:25;;;;;;;0.00;0.00;;;;;;;;;;5034219;28;20059;-86
2022/08/14 08:14:51;;;;;;;0.00;0.00;;;;;;;;;;5034622;28;20382;-87
2022/08/14 08:17:19;;;;;;;0.00;0.00;;;;;;;;;;5033998;28;20050;-87
2022/08/14 08:19:47;;;;;;;0.00;0.00;;;;;;;;;;5034417;28;20057;-87
2022/08/14 08:22:13;;;;;;;0.00;0.00;;;;;;;;;;5017330;28;20489;-88
2022/08/14 08:24:39;;;;;;;0.00;0.00;;;;;;;;;;5034420;28;20041;-88
2022/08/14 08:27:19;;;;;;;0.00;0.00;;;;;;;;;;5034718;28;20114;-85
2022/08/14 08:29:45;;;;;;;0.00;0.00;;;;;;;;;;5017943;28;20052;-86
2022/08/14 08:32:11;;;;;;;0.00;0.00;;;;;;;;;;5017893;28;20487;-88
2022/08/14 08:34:44;;;;;;;0.00;0.00;;;;;;;;;;5034741;28;20038;-88
2022/08/14 08:37:10;;;;;;;0.00;0.00;;;;;;;;;;5034064;28;20050;-88
2022/08/14 08:39:44;;;;;;;0.00;0.00;;;;;;;;;;5034310;28;20072;-89
2022/08/14 08:42:10;;;;;;;0.00;0.00;;;;;;;;;;5034063;28;20042;-88
2022/08/14 08:44:36;;;;;;;0.00;0.00;;;;;;;;;;5034555;28;20531;-88
2022/08/14 08:47:06;;;;;;;0.00;0.00;;;;;;;;;;5017435;28;20053;-87
2022/08/14 08:49:41;;;;;;;0.00;0.00;;;;;;;;;;5018089;28;20061;-90
2022/08/14 08:52:07;;;;;;;0.00;0.00;;;;;;;;;;5034477;28;20116;-88
2022/08/14 08:54:33;;;;;;;0.00;0.00;;;;;;;;;;5034259;28;20048;-88
2022/08/14 08:56:59;;;;;;;0.00;0.00;;;;;;;;;;5017679;28;20045;-89
2022/08/14 08:59:27;;;;;;;0.00;0.00;;;;;;;;;;5034365;28;20127;-90
2022/08/14 09:01:57;;;;;;;0.00;0.00;;;;;;;;;;5034719;28;20043;-89
2022/08/14 09:04:24;;;;;;;0.00;0.00;;;;;;;;;;5034749;28;20068;-90
2022/08/14 09:06:50;;;;;;;0.00;0.00;;;;;;;;;;5034435;28;20041;-89
2022/08/14 09:09:17;;;;;;;0.00;0.00;;;;;;;;;;5034156;28;20038;-91
2022/08/14 09:11:43;;;;;;;0.00;0.00;;;;;;;;;;5033946;28;20045;-89
2022/08/14 09:14:09;;;;;;;0.00;0.00;;;;;;;;;;5034031;28;20168;-89
2022/08/14 09:16:35;;;;;;;0.00;0.00;;;;;;;;;;5017301;28;20055;-89
2022/08/14 09:19:01;;;;;;;0.00;0.00;;;;;;;;;;5036075;28;20041;-91
2022/08/14 09:21:27;;;;;;;0.30;0.08;;;;;;;;;;5035413;28;20389;-89
2022/08/14 09:23:53;;;;;;;0.00;0.00;;;;;;;;;;5034109;28;20124;-90
2022/08/14 09:26:20;;;;;;;0.00;0.00;;;;;;;;;;5017654;28;20079;-88
2022/08/14 09:28:46;;;;;;;0.00;0.00;;;;;;;;;;5017356;28;20041;-89
2022/08/14 09:31:14;;;;;;;0.03;0.00;;;;;;;;;;5033937;28;20052;-89
2022/08/14 09:33:51;;;;;;;0.00;0.00;;;;;;;;;;5033567;28;20041;-91
2022/08/14 09:36:36;;;;;;;0.00;0.00;;;;;;;;;;5034065;28;20051;-90
2022/08/14 09:39:02;;;;;;;0.00;0.00;;;;;;;;;;5033652;28;20042;-89
2022/08/14 09:41:48;;;;;;;0.00;0.00;;;;;;;;;;5033645;28;20066;-90
2022/08/14 09:44:35;;;;;;;0.00;0.00;;;;;;;;;;5033364;28;20115;-89
2022/08/14 09:47:01;;;;;;;0.00;0.00;;;;;;;;;;5004976;28;20045;-92
2022/08/14 09:49:31;;;;;;;0.00;0.00;;;;;;;;;;5033814;28;20045;-91
2022/08/14 09:52:04;;;;;;;0.00;0.00;;;;;;;;;;5033758;28;20382;-91
2022/08/14 09:54:41;;;;;;;0.00;0.00;;;;;;;;;;5017372;28;20069;-90
2022/08/14 09:57:09;;;;;;;0.00;0.00;;;;;;;;;;5017203;28;20077;-90
2022/08/14 09:59:45;;;;;;;0.00;0.00;;;;;;;;;;5033319;28;20044;-89
2022/08/14 10:02:25;;;;;;;0.00;0.00;;;;;;;;;;5017363;28;20038;-90
2022/08/14 10:05:08;;;;;;;0.00;0.00;;;;;;;;;;5033193;28;20041;-89
2022/08/14 10:07:51;;;;;;;0.00;0.00;;;;;;;;;;5032854;28;20140;-89
2022/08/14 10:10:32;;;;;;;0.00;0.00;;;;;;;;;;5017846;28;20045;-90
2022/08/14 10:13:00;;;;;;;0.00;0.00;;;;;;;;;;5033632;28;20052;-90
2022/08/14 10:15:27;;;;;;;0.00;0.00;;;;;;;;;;5016247;28;20041;-88
2022/08/14 10:18:13;;;;;;;0.00;0.00;;;;;;;;;;5017116;28;20073;-89
2022/08/14 10:20:45;;;;;;;0.00;0.00;;;;;;;;;;5033408;28;20045;-88
2022/08/14 10:23:12;;;;;;;0.00;0.00;;;;;;;;;;5032015;28;20064;-88
2022/08/14 10:25:39;;;;;;;0.00;0.00;;;;;;;;;;5015705;28;20037;-88
2022/08/14 10:28:05;;;;;;;0.00;0.00;;;;;;;;;;5031555;28;20091;-88
2022/08/14 10:30:36;;;;;;;0.00;0.00;;;;;;;;;;5031479;28;20042;-87
2022/08/14 10:33:02;;;;;;;0.00;0.00;;;;;;;;;;5031548;28;20095;-87
2022/08/14 10:35:38;;;;;;;0.00;0.00;;;;;;;;;;5031939;28;20067;-87
2022/08/14 10:38:04;;;;;;;0.00;0.00;;;;;;;;;;5034909;28;20118;-86
2022/08/14 10:40:31;;;;;;;0.00;0.00;;;;;;;;;;5031426;28;20480;-85
2022/08/14 10:42:57;;;;;;;0.00;0.00;;;;;;;;;;5015165;28;20095;-86
2022/08/14 10:45:25;;;;;;;0.00;0.00;;;;;;;;;;5015247;28;20034;-86
2022/08/14 10:47:52;;;;;;;0.00;0.00;;;;;;;;;;5031379;28;20045;-86
2022/08/14 10:50:28;;;;;;;0.00;0.00;;;;;;;;;;5014452;28;20061;-87
2022/08/14 10:52:56;;;;;;;0.05;0.03;;;;;;;;;;5014738;28;20061;-87
2022/08/14 10:55:22;;;;;;;0.00;0.00;;;;;;;;;;5014690;28;20504;-87
2022/08/14 10:57:50;;;;;;;0.00;0.00;;;;;;;;;;5014501;28;20319;-87
2022/08/14 11:00:18;;;;;;;0.00;0.00;;;;;;;;;;5031107;28;20041;-86
2022/08/14 11:02:44;;;;;;;0.00;0.00;;;;;;;;;;5030937;28;20037;-87
2022/08/14 11:05:12;;;;;;;0.00;0.00;;;;;;;;;;5031049;28;20119;-86
2022/08/14 11:07:42;;;;;;;0.00;0.00;;;;;;;;;;5030962;28;20136;-87
2022/08/14 11:10:10;;;;;;;0.00;0.00;;;;;;;;;;5030738;28;20053;-88
2022/08/14 11:12:39;;;;;;;0.00;0.00;;;;;;;;;;5031144;28;20045;-87
2022/08/14 11:15:06;;;;;;;0.00;0.00;;;;;;;;;;5030629;28;20042;-86
2022/08/14 11:17:34;;;;;;;0.00;0.00;;;;;;;;;;5014328;28;20042;-86
2022/08/14 11:20:01;;;;;;;0.00;0.00;;;;;;;;;;5030838;28;20033;-86
2022/08/14 11:22:29;;;;;;;0.00;0.00;;;;;;;;;;5014272;28;20069;-85
2022/08/14 11:24:57;;;;;;;0.00;0.00;;;;;;;;;;5030812;28;20041;-87
2022/08/14 11:27:24;;;;;;;0.00;0.00;;;;;;;;;;5014498;28;20083;-86
2022/08/14 11:29:50;;;;;;;0.00;0.00;;;;;;;;;;5030388;28;20045;-86
2022/08/14 11:32:18;;;;;;;0.00;0.00;;;;;;;;;;5030641;28;20041;-86
2022/08/14 11:34:45;;;;;;;0.00;0.00;;;;;;;;;;5031072;28;20128;-86
2022/08/14 11:37:12;;;;;;;0.00;0.00;;;;;;;;;;5030747;28;20037;-86
2022/08/14 11:39:38;;;;;;;0.00;0.00;;;;;;;;;;5031017;28;20042;-86
2022/08/14 11:42:04;;;;;;;0.00;0.00;;;;;;;;;;5014445;28;20087;-87
2022/08/14 11:44:30;;;;;;;0.00;0.00;;;;;;;;;;5031457;28;20042;-87
2022/08/14 11:46:56;;;;;;;0.00;0.00;;;;;;;;;;5034442;28;20207;-87
2022/08/14 11:49:26;;;;;;;0.10;0.00;;;;;;;;;;5018022;28;20050;-87
2022/08/14 11:51:53;;;;;;;0.00;0.00;;;;;;;;;;5034323;28;20056;-86
2022/08/14 11:54:19;;;;;;;0.00;0.00;;;;;;;;;;5034255;28;20068;-87
2022/08/14 11:56:48;;;;;;;0.00;0.00;;;;;;;;;;5034268;28;20048;-87
2022/08/14 11:59:16;;;;;;;0.00;0.00;;;;;;;;;;5017565;28;20113;-88
2022/08/14 12:01:44;;;;;;;0.00;0.00;;;;;;;;;;5034244;28;20112;-86
2022/08/14 12:04:11;;;;;;;0.00;0.00;;;;;;;;;;5017779;28;20455;-86
2022/08/14 12:06:45;;;;;;;0.00;0.00;;;;;;;;;;5034446;28;20041;-87
2022/08/14 12:09:11;;;;;;;0.00;0.00;;;;;;;;;;5034508;28;20077;-87
2022/08/14 12:11:40;;;;;;;0.00;0.00;;;;;;;;;;5034227;28;20049;-89
2022/08/14 12:14:09;;;;;;;0.00;0.00;;;;;;;;;;5034281;28;20045;-87
2022/08/14 12:16:35;;;;;;;0.00;0.00;;;;;;;;;;5034570;28;20051;-88
2022/08/14 12:19:01;;;;;;;0.00;0.00;;;;;;;;;;5034007;28;20033;-87
2022/08/14 12:21:27;;;;;;;0.00;0.00;;;;;;;;;;5033947;28;20037;-86
2022/08/14 12:24:07;;;;;;;0.00;0.00;;;;;;;;;;5033708;28;20079;-87
2022/08/14 12:26:33;;;;;;;0.00;0.00;;;;;;;;;;5033813;28;20080;-86
2022/08/14 12:29:08;;;;;;;0.35;0.10;;;;;;;;;;5033711;28;20229;-87
2022/08/14 12:31:34;;;;;;;0.00;0.00;;;;;;;;;;5017681;28;20076;-85
2022/08/14 12:34:02;;;;;;;0.00;0.00;;;;;;;;;;5042899;28;20089;-86
2022/08/14 12:36:31;;;;;;;0.00;0.00;;;;;;;;;;5020331;28;20136;-84
2022/08/14 12:38:58;;;;;;;0.00;0.00;;;;;;;;;;5017408;28;20048;-86
2022/08/14 12:41:26;;;;;;;0.00;0.00;;;;;;;;;;5033610;28;20038;-86
2022/08/14 12:43:55;;;;;;;0.00;0.00;;;;;;;;;;5033647;28;20073;-85
2022/08/14 12:46:29;;;;;;;0.00;0.00;;;;;;;;;;5033166;28;20095;-85
2022/08/14 12:48:56;;;;;;;0.00;0.00;;;;;;;;;;5017057;28;20128;-85
2022/08/14 12:51:24;;;;;;;0.00;0.00;;;;;;;;;;5016464;28;20516;-85
2022/08/14 12:53:51;;;;;;;0.00;0.00;;;;;;;;;;5033432;28;20052;-86
2022/08/14 12:56:18;;;;;;;0.00;0.00;;;;;;;;;;5016828;28;20046;-86
2022/08/14 12:58:52;;;;;;;0.00;0.00;;;;;;;;;;5033552;28;20045;-86
2022/08/14 13:01:28;;;;;;;0.00;0.00;;;;;;;;;;5017027;28;20083;-86
2022/08/14 13:04:09;;;;;;;0.00;0.00;;;;;;;;;;5033601;28;20065;-87
2022/08/14 13:06:35;;;;;;;0.00;0.00;;;;;;;;;;5016204;28;20045;-88
2022/08/14 13:09:02;;;;;;;0.00;0.00;;;;;;;;;;5032901;28;20147;-86
2022/08/14 13:11:43;;;;;;;0.00;0.00;;;;;;;;;;5032559;28;20160;-85
2022/08/14 13:14:12;;;;;;;0.00;0.00;;;;;;;;;;5016566;28;20041;-86
2022/08/14 13:16:39;;;;;;;0.40;0.25;;;;;;;;;;5016147;28;20091;-86
2022/08/14 13:19:11;;;;;;;0.00;0.00;;;;;;;;;;5032770;28;20048;-86
2022/08/14 13:21:39;;;;;;;0.00;0.00;;;;;;;;;;5032389;28;20049;-86
2022/08/14 13:24:07;;;;;;;0.00;0.00;;;;;;;;;;5016069;28;20083;-87
2022/08/14 13:26:34;;;;;;;0.00;0.00;;;;;;;;;;5015779;28;20559;-85
2022/08/14 13:29:02;;;;;;;0.20;0.10;;;;;;;;;;5049899;28;20041;-86
2022/08/14 13:31:30;;;;;;;0.00;0.00;;;;;;;;;;5052147;28;20052;-85
2022/08/14 13:33:57;;;;;;;0.00;0.00;;;;;;;;;;5052569;28;20098;-83
2022/08/14 13:36:25;;;;;;;0.00;0.00;;;;;;;;;;5052309;28;20076;-84
2022/08/14 13:38:52;;;;;;;0.00;0.00;;;;;;;;;;5052298;28;20048;-83
2022/08/14 13:41:22;;;;;;;0.00;0.00;;;;;;;;;;5051971;28;20455;-84
2022/08/14 13:43:49;;;;;;;0.00;0.00;;;;;;;;;;5052278;28;20041;-86
2022/08/14 13:46:19;;;;;;;0.00;0.00;;;;;;;;;;5051801;28;20060;-86
2022/08/14 13:48:45;;;;;;;0.20;0.00;;;;;;;;;;5051293;28;20053;-85
2022/08/14 13:51:15;;;;;;;0.00;0.00;;;;;;;;;;5035038;28;20057;-85
2022/08/14 13:53:44;;;;;;;0.00;0.00;;;;;;;;;;5051874;28;20048;-85
2022/08/14 13:56:12;;;;;;;0.00;0.00;;;;;;;;;;5051640;28;20193;-85
2022/08/14 13:58:38;;;;;;;0.00;0.00;;;;;;;;;;5051785;28;20040;-85
2022/08/14 14:01:05;;;;;;;0.00;0.00;;;;;;;;;;5051613;28;20120;-85
2022/08/14 14:03:34;;;;;;;0.00;0.00;;;;;;;;;;5052000;28;20041;-85
2022/08/14 14:06:01;;;;;;;0.00;0.00;;;;;;;;;;5051641;28;20049;-85
2022/08/14 14:08:28;;;;;;;0.00;0.00;;;;;;;;;;5034280;28;20048;-85
2022/08/14 14:10:55;;;;;;;0.00;0.00;;;;;;;;;;5051450;28;20091;-85
2022/08/14 14:13:21;;;;;;;0.00;0.00;;;;;;;;;;5048555;28;20060;-86
2022/08/14 14:15:48;;;;;;;0.00;0.00;;;;;;;;;;5014981;28;20495;-87
2022/08/14 14:18:15;;;;;;;0.00;0.00;;;;;;;;;;5015281;28;20091;-85
2022/08/14 14:20:44;;;;;;;0.00;0.00;;;;;;;;;;5031352;28;20179;-86
2022/08/14 14:23:13;;;;;;;0.00;0.00;;;;;;;;;;5031760;28;20124;-85
2022/08/14 14:25:41;;;;;;;0.00;0.00;;;;;;;;;;5031295;28;20038;-86
2022/08/14 14:28:08;;;;;;;0.25;0.00;;;;;;;;;;5031661;28;20084;-86
2022/08/14 14:30:35;;;;;;;0.00;0.00;;;;;;;;;;5014605;28;20041;-86
2022/08/14 14:33:03;;;;;;;0.00;0.00;;;;;;;;;;5031668;28;20060;-85
2022/08/14 14:35:30;;;;;;;0.00;0.00;;;;;;;;;;5015008;28;20041;-86
2022/08/14 14:37:56;;;;;;;0.00;0.00;;;;;;;;;;5031479;28;20130;-86
2022/08/14 14:40:22;;;;;;;0.00;0.00;;;;;;;;;;5031095;28;20376;-85
2022/08/14 14:42:50;;;;;;;0.00;0.00;;;;;;;;;;5031329;28;20037;-85
2022/08/14 14:45:18;;;;;;;0.10;0.00;;;;;;;;;;5031184;28;20511;-85
2022/08/14 14:47:52;;;;;;;0.00;0.00;;;;;;;;;;5031317;28;20055;-86
2022/08/14 14:50:18;;;;;;;0.00;0.00;;;;;;;;;;5030983;28;20409;-85
2022/08/14 14:52:45;;;;;;;0.00;0.00;;;;;;;;;;5031177;28;20284;-83
2022/08/14 14:55:11;;;;;;;0.00;0.00;;;;;;;;;;5031140;28;20048;-85
2022/08/14 14:57:38;;;;;;;0.10;0.10;;;;;;;;;;5031159;28;20076;-84
2022/08/14 15:00:09;;;;;;;0.00;0.00;;;;;;;;;;5015318;28;20093;-85
2022/08/14 15:02:36;;;;;;;0.40;0.32;;;;;;;;;;5031228;28;20034;-85
2022/08/14 15:05:03;;;;;;;0.00;0.00;;;;;;;;;;5031480;28;20045;-85
2022/08/14 15:07:30;;;;;;;0.00;0.00;;;;;;;;;;5030731;28;20045;-85
2022/08/14 15:09:56;;;;;;;0.30;0.00;;;;;;;;;;5014433;28;20091;-86